createdAt,value
2019-01-11T00:00:46.699Z,101692.38
2019-01-11T00:01:50.935Z,101697.60
2019-01-11T00:02:54.501Z,101695.97
2019-01-11T00:03:58.083Z,101696.25
2019-01-11T00:05:01.600Z,101691.88
2019-01-11T00:06:05.385Z,101699.30
2019-01-11T00:07:08.882Z,101695.17
2019-01-11T00:08:12.596Z,101694.36
2019-01-11T00:09:17.194Z,101698.21
2019-01-11T00:10:20.832Z,101693.02
2019-01-11T00:11:24.425Z,101696.31
2019-01-11T00:12:28.012Z,101694.64
2019-01-11T00:13:31.508Z,101695.48
2019-01-11T00:14:34.993Z,101688.63
2019-01-11T00:15:39.157Z,101688.63
2019-01-11T00:16:42.712Z,101686.72
2019-01-11T00:17:46.202Z,101688.09
2019-01-11T00:18:49.835Z,101687.56
2019-01-11T00:19:53.339Z,101682.36
2019-01-11T00:20:56.935Z,101682.10
2019-01-11T00:22:00.493Z,101684.84
2019-01-11T00:23:04.125Z,101684.03
2019-01-11T00:24:07.873Z,101687.06
2019-01-11T00:25:11.538Z,101683.23
2019-01-11T00:26:15.098Z,101682.15
2019-01-11T00:27:18.586Z,101686.53
2019-01-11T00:28:22.107Z,101686.82
2019-01-11T00:29:25.669Z,101685.45
2019-01-11T00:30:29.342Z,101687.90
2019-01-11T00:31:33.022Z,101686.27
2019-01-11T00:32:36.588Z,101687.37
2019-01-11T00:33:40.189Z,101679.98
2019-01-11T00:34:43.665Z,101684.09
2019-01-11T00:35:47.310Z,101684.09
2019-01-11T00:36:50.892Z,101678.34
2019-01-11T00:37:54.448Z,101676.97
2019-01-11T00:38:57.951Z,101675.88
2019-01-11T00:40:01.507Z,101678.63
2019-01-11T00:41:05.168Z,101672.88
2019-01-11T00:42:08.763Z,101674.80
2019-01-11T00:43:15.206Z,101673.72
2019-01-11T00:44:17.639Z,101671.80
2019-01-11T00:45:21.148Z,101671.27
2019-01-11T00:46:24.788Z,101674.56
2019-01-11T00:47:28.382Z,101661.95
2019-01-11T00:48:31.892Z,101666.62
2019-01-11T00:49:35.388Z,101663.05
2019-01-11T00:50:38.979Z,101662.76
2019-01-11T00:51:42.472Z,101661.94
2019-01-11T00:52:46.126Z,101663.86
2019-01-11T00:53:49.786Z,101664.42
2019-01-11T00:54:53.420Z,101664.16
2019-01-11T00:55:56.984Z,101663.34
2019-01-11T00:57:00.471Z,101658.40
2019-01-11T00:58:04.155Z,101658.71
2019-01-11T00:59:07.723Z,101658.98
2019-01-11T01:00:22.423Z,101665.02
2019-01-11T01:01:25.991Z,101657.08
2019-01-11T01:02:29.668Z,101662.56
2019-01-11T01:03:33.324Z,101665.30
2019-01-11T01:04:36.973Z,101660.66
2019-01-11T01:05:40.542Z,101661.22
2019-01-11T01:06:44.166Z,101660.66
2019-01-11T01:07:48.011Z,101659.84
2019-01-11T01:08:51.649Z,101662.88
2019-01-11T01:09:55.193Z,101664.25
2019-01-11T01:10:59.539Z,101657.67
2019-01-11T01:12:03.230Z,101659.57
2019-01-11T01:13:06.880Z,101659.30
2019-01-11T01:14:10.582Z,101659.30
2019-01-11T01:15:14.785Z,101659.03
2019-01-11T01:16:18.432Z,101654.63
2019-01-11T01:17:21.917Z,101652.44
2019-01-11T01:18:25.468Z,101653.55
2019-01-11T01:19:29.218Z,101651.09
2019-01-11T01:20:32.702Z,101653.28
2019-01-11T01:21:36.285Z,101653.56
2019-01-11T01:22:39.860Z,101650.00
2019-01-11T01:23:43.410Z,101650.55
2019-01-11T01:24:47.025Z,101654.67
2019-01-11T01:25:50.644Z,101654.41
2019-01-11T01:26:54.283Z,101654.69
2019-01-11T01:27:57.884Z,101662.92
2019-01-11T01:29:01.374Z,101654.42
2019-01-11T01:30:07.964Z,101661.02
2019-01-11T01:31:11.555Z,101652.23
2019-01-11T01:32:15.035Z,101658.01
2019-01-11T01:33:18.608Z,101649.78
2019-01-11T01:34:22.083Z,101658.56
2019-01-11T01:35:25.666Z,101649.22
2019-01-11T01:36:29.177Z,101654.70
2019-01-11T01:37:32.738Z,101644.86
2019-01-11T01:38:36.278Z,101646.20
2019-01-11T01:39:39.770Z,101653.62
2019-01-11T01:40:43.575Z,101639.64
2019-01-11T01:41:47.166Z,101656.09
2019-01-11T01:42:50.723Z,101652.53
2019-01-11T01:43:54.196Z,101651.16
2019-01-11T01:44:57.713Z,101650.90
2019-01-11T01:46:01.367Z,101648.44
2019-01-11T01:47:05.024Z,101651.45
2019-01-11T01:48:08.611Z,101644.90
2019-01-11T01:49:12.120Z,101645.16
2019-01-11T01:50:15.839Z,101646.25
2019-01-11T01:51:19.426Z,101644.61
2019-01-11T01:52:22.996Z,101643.53
2019-01-11T01:53:26.502Z,101636.94
2019-01-11T01:54:30.241Z,101643.27
2019-01-11T01:55:33.825Z,101647.11
2019-01-11T01:56:37.440Z,101648.48
2019-01-11T01:57:40.986Z,101649.85
2019-01-11T01:58:44.515Z,101647.40
2019-01-11T01:59:48.139Z,101654.25
2019-01-11T02:00:51.821Z,101650.69
2019-01-11T02:01:55.351Z,101643.53
2019-01-11T02:02:58.904Z,101655.61
2019-01-11T02:04:02.475Z,101647.94
2019-01-11T02:05:08.681Z,101645.75
2019-01-11T02:06:12.557Z,101648.76
2019-01-11T02:07:16.153Z,101647.41
2019-01-11T02:08:19.800Z,101641.37
2019-01-11T02:09:23.413Z,101641.92
2019-01-11T02:10:27.089Z,101646.59
2019-01-11T02:11:30.807Z,101641.66
2019-01-11T02:12:34.400Z,101642.20
2019-01-11T02:13:37.964Z,101643.31
2019-01-11T02:14:42.645Z,101638.94
2019-01-11T02:15:46.302Z,101641.67
2019-01-11T02:16:49.784Z,101638.94
2019-01-11T02:17:53.335Z,101637.30
2019-01-11T02:18:56.923Z,101643.59
2019-01-11T02:20:00.647Z,101637.03
2019-01-11T02:21:04.234Z,101641.14
2019-01-11T02:22:07.901Z,101639.77
2019-01-11T02:23:11.485Z,101635.11
2019-01-11T02:24:14.998Z,101630.74
2019-01-11T02:25:18.662Z,101636.21
2019-01-11T02:26:22.153Z,101631.28
2019-01-11T02:27:25.743Z,101630.45
2019-01-11T02:28:29.255Z,101633.75
2019-01-11T02:29:32.826Z,101629.64
2019-01-11T02:30:36.398Z,101623.89
2019-01-11T02:31:39.953Z,101623.36
2019-01-11T02:32:43.448Z,101625.00
2019-01-11T02:33:46.978Z,101622.25
2019-01-11T02:34:50.547Z,101626.37
2019-01-11T02:35:54.089Z,101623.36
2019-01-11T02:36:57.600Z,101620.31
2019-01-11T02:38:01.240Z,101625.80
2019-01-11T02:39:07.046Z,101621.16
2019-01-11T02:40:11.886Z,101617.05
2019-01-11T02:41:15.413Z,101615.41
2019-01-11T02:42:18.983Z,101608.55
2019-01-11T02:43:22.544Z,101607.18
2019-01-11T02:44:26.098Z,101604.99
2019-01-11T02:45:29.580Z,101608.84
2019-01-11T02:46:33.146Z,101603.91
2019-01-11T02:47:36.711Z,101603.91
2019-01-11T02:48:40.204Z,101599.53
2019-01-11T02:49:44.480Z,101600.34
2019-01-11T02:50:47.980Z,101591.86
2019-01-11T02:51:51.535Z,101600.90
2019-01-11T02:52:55.062Z,101588.30
2019-01-11T02:53:58.688Z,101600.63
2019-01-11T02:55:02.236Z,101594.91
2019-01-11T02:56:05.822Z,101592.41
2019-01-11T02:57:09.386Z,101600.37
2019-01-11T02:58:12.871Z,101597.62
2019-01-11T02:59:16.359Z,101597.91
2019-01-11T03:00:21.028Z,101594.62
2019-01-11T03:01:24.598Z,101591.61
2019-01-11T03:02:28.154Z,101593.53
2019-01-11T03:03:31.642Z,101589.97
2019-01-11T03:04:35.263Z,101589.97
2019-01-11T03:05:38.857Z,101592.45
2019-01-11T03:06:42.420Z,101589.44
2019-01-11T03:07:46.719Z,101586.15
2019-01-11T03:08:50.344Z,101591.08
2019-01-11T03:09:54.107Z,101585.88
2019-01-11T03:10:57.600Z,101581.77
2019-01-11T03:12:01.104Z,101582.02
2019-01-11T03:13:04.941Z,101580.66
2019-01-11T03:14:08.504Z,101580.95
2019-01-11T03:15:13.047Z,101579.58
2019-01-11T03:16:16.650Z,101571.06
2019-01-11T03:17:20.273Z,101575.17
2019-01-11T03:18:23.882Z,101568.34
2019-01-11T03:19:27.374Z,101569.71
2019-01-11T03:20:31.008Z,101575.45
2019-01-11T03:21:34.589Z,101569.16
2019-01-11T03:22:38.163Z,101567.23
2019-01-11T03:23:41.660Z,101578.75
2019-01-11T03:24:45.225Z,101574.38
2019-01-11T03:25:48.728Z,101576.84
2019-01-11T03:26:52.249Z,101571.37
2019-01-11T03:27:55.816Z,101565.33
2019-01-11T03:28:59.309Z,101562.33
2019-01-11T03:30:02.887Z,101563.70
2019-01-11T03:31:08.118Z,101565.62
2019-01-11T03:32:11.667Z,101562.06
2019-01-11T03:33:15.172Z,101559.88
2019-01-11T03:34:18.672Z,101565.91
2019-01-11T03:35:22.224Z,101554.67
2019-01-11T03:36:25.833Z,101552.75
2019-01-11T03:37:29.318Z,101556.86
2019-01-11T03:38:32.799Z,101557.97
2019-01-11T03:39:36.281Z,101552.22
2019-01-11T03:40:39.881Z,101551.95
2019-01-11T03:41:44.997Z,101550.85
2019-01-11T03:42:48.569Z,101549.22
2019-01-11T03:43:52.066Z,101548.95
2019-01-11T03:44:55.940Z,101553.06
2019-01-11T03:45:59.467Z,101550.05
2019-01-11T03:47:03.102Z,101550.05
2019-01-11T03:48:06.742Z,101545.67
2019-01-11T03:49:10.358Z,101548.12
2019-01-11T03:50:16.091Z,101544.86
2019-01-11T03:51:19.681Z,101543.19
2019-01-11T03:52:23.178Z,101538.00
2019-01-11T03:53:26.740Z,101541.55
2019-01-11T03:54:30.308Z,101532.78
2019-01-11T03:55:33.959Z,101535.25
2019-01-11T03:56:37.487Z,101536.91
2019-01-11T03:57:41.146Z,101533.05
2019-01-11T03:58:44.710Z,101535.52
2019-01-11T03:59:48.206Z,101536.05
2019-01-11T04:00:51.762Z,101537.39
2019-01-11T04:01:55.350Z,101538.19
2019-01-11T04:02:58.912Z,101531.31
2019-01-11T04:04:02.473Z,101529.12
2019-01-11T04:05:08.296Z,101532.37
2019-01-11T04:06:12.032Z,101531.52
2019-01-11T04:07:15.558Z,101531.73
2019-01-11T04:08:19.121Z,101525.91
2019-01-11T04:09:22.606Z,101527.19
2019-01-11T04:10:26.180Z,101522.99
2019-01-11T04:11:29.674Z,101524.05
2019-01-11T04:12:33.202Z,101522.63
2019-01-11T04:13:36.692Z,101524.73
2019-01-11T04:14:40.255Z,101524.11
2019-01-11T04:15:43.748Z,101525.66
2019-01-11T04:16:47.387Z,101521.67
2019-01-11T04:18:08.903Z,101522.45
2019-01-11T04:19:12.476Z,101516.59
2019-01-11T04:20:18.840Z,101521.13
2019-01-11T04:21:22.412Z,101514.67
2019-01-11T04:22:29.735Z,101511.59
2019-01-11T04:23:33.405Z,101510.16
2019-01-11T04:24:38.530Z,101510.98
2019-01-11T04:25:42.101Z,101503.77
2019-01-11T04:26:45.600Z,101500.69
2019-01-11T04:27:50.736Z,101504.42
2019-01-11T04:28:54.321Z,101503.26
2019-01-11T04:29:57.815Z,101503.22
2019-01-11T04:31:01.493Z,101503.73
2019-01-11T04:32:05.114Z,101501.28
2019-01-11T04:33:08.619Z,101503.94
2019-01-11T04:34:12.221Z,101506.44
2019-01-11T04:35:15.936Z,101500.12
2019-01-11T04:36:19.450Z,101502.31
2019-01-11T04:37:22.995Z,101494.84
2019-01-11T04:38:26.549Z,101492.09
2019-01-11T04:39:30.706Z,101495.35
2019-01-11T04:40:34.578Z,101497.50
2019-01-11T04:41:38.224Z,101501.63
2019-01-11T04:42:41.857Z,101493.63
2019-01-11T04:43:45.414Z,101489.75
2019-01-11T04:44:48.943Z,101491.39
2019-01-11T04:45:52.487Z,101491.43
2019-01-11T04:46:55.960Z,101494.44
2019-01-11T04:47:59.552Z,101488.59
2019-01-11T04:49:03.048Z,101485.84
2019-01-11T04:50:09.624Z,101492.72
2019-01-11T04:51:13.449Z,101487.13
2019-01-11T04:52:17.079Z,101487.13
2019-01-11T04:53:20.753Z,101491.20
2019-01-11T04:54:24.246Z,101491.55
2019-01-11T04:55:27.811Z,101487.43
2019-01-11T04:56:31.337Z,101485.55
2019-01-11T04:57:34.993Z,101486.96
2019-01-11T04:58:38.511Z,101485.07
2019-01-11T04:59:42.049Z,101484.56
2019-01-11T05:00:47.098Z,101484.30
2019-01-11T05:01:50.588Z,101489.81
2019-01-11T05:02:54.137Z,101487.41
2019-01-11T05:03:57.628Z,101481.44
2019-01-11T05:05:01.184Z,101490.54
2019-01-11T05:06:04.742Z,101485.05
2019-01-11T05:07:08.395Z,101487.89
2019-01-11T05:08:11.996Z,101490.42
2019-01-11T05:09:15.479Z,101490.76
2019-01-11T05:10:19.334Z,101486.09
2019-01-11T05:11:22.871Z,101489.99
2019-01-11T05:12:26.424Z,101494.63
2019-01-11T05:13:31.581Z,101491.02
2019-01-11T05:14:35.073Z,101481.14
2019-01-11T05:15:38.601Z,101486.38
2019-01-11T05:16:42.114Z,101486.34
2019-01-11T05:17:45.835Z,101485.18
2019-01-11T05:18:49.350Z,101483.72
2019-01-11T05:19:52.900Z,101484.23
2019-01-11T05:20:56.556Z,101475.33
2019-01-11T05:22:00.082Z,101478.86
2019-01-11T05:23:03.564Z,101474.94
2019-01-11T05:24:07.167Z,101469.95
2019-01-11T05:25:10.905Z,101472.66
2019-01-11T05:26:14.468Z,101472.86
2019-01-11T05:27:18.011Z,101465.17
2019-01-11T05:28:21.511Z,101472.81
2019-01-11T05:29:25.001Z,101472.77
2019-01-11T05:30:29.114Z,101471.44
2019-01-11T05:31:32.676Z,101473.94
2019-01-11T05:32:36.258Z,101466.80
2019-01-11T05:33:39.782Z,101466.59
2019-01-11T05:34:43.264Z,101467.11
2019-01-11T05:35:46.860Z,101469.95
2019-01-11T05:36:50.435Z,101471.32
2019-01-11T05:37:53.958Z,101462.81
2019-01-11T05:38:57.430Z,101464.19
2019-01-11T05:40:02.114Z,101467.20
2019-01-11T05:41:05.813Z,101466.55
2019-01-11T05:42:09.398Z,101467.36
2019-01-11T05:43:12.915Z,101467.58
2019-01-11T05:44:16.427Z,101464.01
2019-01-11T05:45:19.992Z,101465.13
2019-01-11T05:46:23.529Z,101471.70
2019-01-11T05:47:27.096Z,101465.38
2019-01-11T05:48:30.644Z,101465.69
2019-01-11T05:49:34.195Z,101457.95
2019-01-11T05:50:37.744Z,101460.40
2019-01-11T05:51:41.270Z,101461.26
2019-01-11T05:52:45.054Z,101463.50
2019-01-11T05:53:48.553Z,101467.63
2019-01-11T05:54:52.064Z,101463.84
2019-01-11T05:55:55.647Z,101464.45
2019-01-11T05:56:59.281Z,101465.01
2019-01-11T05:58:09.883Z,101461.45
2019-01-11T05:59:13.368Z,101455.14
2019-01-11T06:00:17.025Z,101458.70
2019-01-11T06:01:20.585Z,101459.55
2019-01-11T06:02:24.173Z,101458.18
2019-01-11T06:03:27.802Z,101465.56
2019-01-11T06:04:44.188Z,101465.22
2019-01-11T06:05:47.815Z,101465.73
2019-01-11T06:07:04.450Z,101462.42
2019-01-11T06:08:09.668Z,101462.12
2019-01-11T06:09:13.232Z,101456.36
2019-01-11T06:10:17.077Z,101454.99
2019-01-11T06:11:20.622Z,101455.25
2019-01-11T06:12:24.112Z,101451.47
2019-01-11T06:13:27.699Z,101454.27
2019-01-11T06:14:31.256Z,101461.14
2019-01-11T06:15:34.840Z,101462.83
2019-01-11T06:16:38.410Z,101469.19
2019-01-11T06:17:41.914Z,101463.22
2019-01-11T06:18:45.433Z,101473.92
2019-01-11T06:19:48.932Z,101462.10
2019-01-11T06:20:52.643Z,101456.09
2019-01-11T06:21:56.212Z,101451.63
2019-01-11T06:22:59.771Z,101450.25
2019-01-11T06:24:03.399Z,101452.38
2019-01-11T06:25:07.421Z,101454.22
2019-01-11T06:26:11.007Z,101456.11
2019-01-11T06:27:14.549Z,101454.48
2019-01-11T06:28:18.283Z,101456.67
2019-01-11T06:29:21.815Z,101457.73
2019-01-11T06:30:25.378Z,101456.92
2019-01-11T06:31:28.893Z,101458.05
2019-01-11T06:32:32.460Z,101458.05
2019-01-11T06:33:36.211Z,101456.97
2019-01-11T06:34:39.833Z,101454.83
2019-01-11T06:35:43.392Z,101463.89
2019-01-11T06:36:46.952Z,101463.08
2019-01-11T06:37:50.532Z,101455.69
2019-01-11T06:38:54.022Z,101462.30
2019-01-11T06:39:57.532Z,101463.95
2019-01-11T06:41:01.130Z,101464.51
2019-01-11T06:42:06.483Z,101471.13
2019-01-11T06:43:09.991Z,101467.26
2019-01-11T06:44:13.690Z,101466.42
2019-01-11T06:45:17.288Z,101469.95
2019-01-11T06:46:22.433Z,101468.31
2019-01-11T06:47:26.002Z,101471.23
2019-01-11T06:48:31.154Z,101470.98
2019-01-11T06:49:34.632Z,101466.85
2019-01-11T06:50:38.205Z,101463.59
2019-01-11T06:51:41.718Z,101459.81
2019-01-11T06:52:45.373Z,101466.64
2019-01-11T06:53:48.887Z,101466.38
2019-01-11T06:54:52.393Z,101462.30
2019-01-11T06:55:55.913Z,101462.88
2019-01-11T06:56:59.478Z,101470.35
2019-01-11T06:58:03.035Z,101470.09
2019-01-11T06:59:08.295Z,101467.09
2019-01-11T07:00:16.421Z,101466.02
2019-01-11T07:01:19.997Z,101471.47
2019-01-11T07:02:23.644Z,101464.03
2019-01-11T07:03:27.151Z,101462.36
2019-01-11T07:04:30.773Z,101461.45
2019-01-11T07:05:34.297Z,101461.44
2019-01-11T07:06:37.894Z,101463.33
2019-01-11T07:07:41.630Z,101462.21
2019-01-11T07:08:45.669Z,101459.46
2019-01-11T07:09:49.302Z,101463.84
2019-01-11T07:10:52.915Z,101465.48
2019-01-11T07:11:56.575Z,101462.77
2019-01-11T07:13:00.254Z,101465.22
2019-01-11T07:14:04.013Z,101463.84
2019-01-11T07:15:09.918Z,101463.03
2019-01-11T07:16:13.832Z,101468.53
2019-01-11T07:17:17.362Z,101468.83
2019-01-11T07:18:20.908Z,101468.88
2019-01-11T07:19:24.408Z,101467.52
2019-01-11T07:20:28.002Z,101468.63
2019-01-11T07:21:31.554Z,101466.14
2019-01-11T07:22:35.156Z,101458.49
2019-01-11T07:23:38.924Z,101466.64
2019-01-11T07:24:42.407Z,101467.66
2019-01-11T07:25:45.988Z,101465.08
2019-01-11T07:26:49.494Z,101469.47
2019-01-11T07:27:57.630Z,101468.63
2019-01-11T07:29:01.225Z,101465.06
2019-01-11T07:30:08.132Z,101465.33
2019-01-11T07:31:12.680Z,101466.14
2019-01-11T07:32:16.225Z,101465.90
2019-01-11T07:33:21.509Z,101467.02
2019-01-11T07:34:25.394Z,101468.13
2019-01-11T07:35:30.475Z,101463.75
2019-01-11T07:36:35.304Z,101469.86
2019-01-11T07:37:38.823Z,101467.97
2019-01-11T07:38:42.333Z,101469.95
2019-01-11T07:39:46.020Z,101471.58
2019-01-11T07:40:49.628Z,101476.78
2019-01-11T07:41:53.628Z,101475.70
2019-01-11T07:42:57.135Z,101470.47
2019-01-11T07:44:00.674Z,101475.62
2019-01-11T07:45:05.775Z,101479.65
2019-01-11T07:46:09.520Z,101473.64
2019-01-11T07:47:13.066Z,101479.38
2019-01-11T07:48:16.591Z,101476.06
2019-01-11T07:49:23.222Z,101478.81
2019-01-11T07:50:25.297Z,101480.70
2019-01-11T07:51:28.878Z,101476.58
2019-01-11T07:52:32.684Z,101476.33
2019-01-11T07:53:36.468Z,101474.69
2019-01-11T07:54:40.055Z,101473.59
2019-01-11T07:55:43.570Z,101476.39
2019-01-11T07:56:47.062Z,101478.58
2019-01-11T07:57:50.570Z,101470.93
2019-01-11T07:58:54.084Z,101468.23
2019-01-11T07:59:57.582Z,101467.72
2019-01-11T08:01:01.166Z,101463.84
2019-01-11T08:02:04.889Z,101462.68
2019-01-11T08:03:08.632Z,101469.00
2019-01-11T08:04:12.278Z,101462.63
2019-01-11T08:05:15.782Z,101463.14
2019-01-11T08:06:19.740Z,101464.52
2019-01-11T08:07:23.400Z,101465.33
2019-01-11T08:08:26.869Z,101458.45
2019-01-11T08:09:30.554Z,101459.31
2019-01-11T08:10:55.014Z,101461.76
2019-01-11T08:11:58.509Z,101457.94
2019-01-11T08:13:02.024Z,101463.75
2019-01-11T08:14:06.999Z,101462.38
2019-01-11T08:15:13.311Z,101457.70
2019-01-11T08:16:16.916Z,101467.63
2019-01-11T08:17:20.476Z,101467.66
2019-01-11T08:18:24.026Z,101468.23
2019-01-11T08:19:27.513Z,101464.97
2019-01-11T08:20:31.560Z,101470.11
2019-01-11T08:21:35.230Z,101469.86
2019-01-11T08:22:42.419Z,101463.14
2019-01-11T08:23:45.996Z,101465.38
2019-01-11T08:24:51.158Z,101463.44
2019-01-11T08:25:54.715Z,101462.59
2019-01-11T08:26:58.389Z,101468.94
2019-01-11T08:28:01.867Z,101468.59
2019-01-11T08:29:05.895Z,101463.34
2019-01-11T08:30:12.783Z,101461.16
2019-01-11T08:31:16.272Z,101470.78
2019-01-11T08:32:19.987Z,101466.39
2019-01-11T08:33:23.603Z,101466.72
2019-01-11T08:34:27.077Z,101463.97
2019-01-11T08:35:30.602Z,101462.63
2019-01-11T08:36:34.241Z,101461.56
2019-01-11T08:37:38.387Z,101460.28
2019-01-11T08:38:41.907Z,101466.59
2019-01-11T08:39:45.530Z,101473.21
2019-01-11T08:40:49.098Z,101467.16
2019-01-11T08:41:52.668Z,101468.48
2019-01-11T08:42:56.247Z,101472.30
2019-01-11T08:43:59.765Z,101470.38
2019-01-11T08:45:04.697Z,101465.64
2019-01-11T08:46:08.320Z,101474.69
2019-01-11T08:47:11.982Z,101472.20
2019-01-11T08:48:15.561Z,101469.70
2019-01-11T08:49:19.140Z,101469.96
2019-01-11T08:50:22.844Z,101471.29
2019-01-11T08:51:26.466Z,101467.77
2019-01-11T08:52:30.046Z,101470.52
2019-01-11T08:53:35.204Z,101467.21
2019-01-11T08:54:38.809Z,101454.08
2019-01-11T08:55:42.401Z,101450.22
2019-01-11T08:56:45.950Z,101454.13
2019-01-11T08:57:49.666Z,101464.88
2019-01-11T08:58:53.344Z,101462.47
2019-01-11T08:59:57.170Z,101460.84
2019-01-11T09:01:00.709Z,101451.21
2019-01-11T09:02:04.391Z,101456.71
2019-01-11T09:03:08.017Z,101454.73
2019-01-11T09:04:11.540Z,101455.77
2019-01-11T09:05:15.306Z,101457.65
2019-01-11T09:06:18.933Z,101452.96
2019-01-11T09:07:22.425Z,101454.28
2019-01-11T09:08:25.991Z,101463.86
2019-01-11T09:09:29.588Z,101462.48
2019-01-11T09:10:33.193Z,101465.23
2019-01-11T09:11:36.816Z,101460.29
2019-01-11T09:12:40.380Z,101472.11
2019-01-11T09:13:43.935Z,101471.34
2019-01-11T09:14:48.120Z,101467.26
2019-01-11T09:15:51.619Z,101471.94
2019-01-11T09:16:55.241Z,101473.31
2019-01-11T09:18:03.134Z,101467.87
2019-01-11T09:19:06.819Z,101468.48
2019-01-11T09:20:10.619Z,101474.89
2019-01-11T09:21:14.109Z,101472.20
2019-01-11T09:22:17.679Z,101462.36
2019-01-11T09:23:21.274Z,101465.72
2019-01-11T09:24:24.820Z,101465.76
2019-01-11T09:25:28.415Z,101457.55
2019-01-11T09:26:31.910Z,101463.87
2019-01-11T09:27:35.417Z,101458.13
2019-01-11T09:28:39.054Z,101458.13
2019-01-11T09:29:42.633Z,101452.41
2019-01-11T09:30:47.047Z,101460.95
2019-01-11T09:31:54.003Z,101468.43
2019-01-11T09:32:58.297Z,101469.50
2019-01-11T09:34:02.596Z,101472.47
2019-01-11T09:35:06.873Z,101475.22
2019-01-11T09:36:11.008Z,101471.91
2019-01-11T09:37:14.906Z,101474.36
2019-01-11T09:38:18.485Z,101476.25
2019-01-11T09:39:22.020Z,101477.35
2019-01-11T09:40:25.650Z,101470.14
2019-01-11T09:41:29.240Z,101474.78
2019-01-11T09:42:32.770Z,101472.80
2019-01-11T09:43:36.252Z,101475.25
2019-01-11T09:44:39.836Z,101474.94
2019-01-11T09:45:43.412Z,101466.34
2019-01-11T09:46:47.248Z,101474.75
2019-01-11T09:47:50.814Z,101473.83
2019-01-11T09:48:54.367Z,101471.20
2019-01-11T09:49:57.868Z,101475.00
2019-01-11T09:51:01.489Z,101478.47
2019-01-11T09:52:05.213Z,101475.47
2019-01-11T09:53:08.874Z,101477.05
2019-01-11T09:54:12.324Z,101474.86
2019-01-11T09:55:16.071Z,101474.60
2019-01-11T09:56:19.677Z,101476.44
2019-01-11T09:57:24.820Z,101471.50
2019-01-11T09:58:28.324Z,101476.44
2019-01-11T09:59:35.122Z,101478.61
2019-01-11T10:00:37.861Z,101478.94
2019-01-11T10:01:41.496Z,101476.75
2019-01-11T10:02:46.711Z,101470.27
2019-01-11T10:03:50.276Z,101480.66
2019-01-11T10:04:53.764Z,101481.13
2019-01-11T10:05:57.571Z,101480.10
2019-01-11T10:07:02.762Z,101476.70
2019-01-11T10:08:06.541Z,101478.31
2019-01-11T10:09:10.318Z,101480.20
2019-01-11T10:10:14.569Z,101480.20
2019-01-11T10:11:18.168Z,101483.30
2019-01-11T10:12:21.791Z,101480.55
2019-01-11T10:13:25.254Z,101477.50
2019-01-11T10:14:28.800Z,101480.27
2019-01-11T10:15:32.448Z,101480.31
2019-01-11T10:16:36.040Z,101478.94
2019-01-11T10:17:39.660Z,101476.75
2019-01-11T10:18:43.152Z,101477.61
2019-01-11T10:19:46.693Z,101472.45
2019-01-11T10:20:51.535Z,101473.90
2019-01-11T10:21:55.172Z,101476.65
2019-01-11T10:22:58.838Z,101474.51
2019-01-11T10:24:02.392Z,101476.19
2019-01-11T10:25:08.510Z,101477.34
2019-01-11T10:26:12.736Z,101466.39
2019-01-11T10:27:16.264Z,101472.76
2019-01-11T10:28:19.906Z,101463.14
2019-01-11T10:29:23.576Z,101468.95
2019-01-11T10:30:27.214Z,101459.38
2019-01-11T10:31:30.790Z,101454.52
2019-01-11T10:32:34.382Z,101455.90
2019-01-11T10:33:37.957Z,101459.51
2019-01-11T10:34:41.469Z,101453.75
2019-01-11T10:35:45.105Z,101456.80
2019-01-11T10:36:48.745Z,101456.56
2019-01-11T10:37:52.271Z,101456.81
2019-01-11T10:38:55.839Z,101455.75
2019-01-11T10:39:59.413Z,101454.89
2019-01-11T10:41:03.096Z,101451.30
2019-01-11T10:42:06.932Z,101458.44
2019-01-11T10:43:10.579Z,101449.84
2019-01-11T10:44:14.262Z,101451.13
2019-01-11T10:45:20.085Z,101456.00
2019-01-11T10:46:34.391Z,101453.97
2019-01-11T10:47:38.017Z,101455.00
2019-01-11T10:48:41.593Z,101454.13
2019-01-11T10:49:45.202Z,101454.39
2019-01-11T10:50:48.771Z,101445.58
2019-01-11T10:51:52.364Z,101453.83
2019-01-11T10:52:55.990Z,101457.14
2019-01-11T10:53:59.765Z,101455.48
2019-01-11T10:55:03.524Z,101457.39
2019-01-11T10:56:07.003Z,101448.94
2019-01-11T10:57:10.844Z,101448.07
2019-01-11T10:58:14.422Z,101445.62
2019-01-11T10:59:17.909Z,101441.80
2019-01-11T11:00:24.043Z,101438.55
2019-01-11T11:01:27.644Z,101437.73
2019-01-11T11:02:31.146Z,101434.97
2019-01-11T11:03:34.738Z,101434.97
2019-01-11T11:04:38.414Z,101433.09
2019-01-11T11:05:41.945Z,101434.36
2019-01-11T11:06:45.481Z,101441.24
2019-01-11T11:07:49.118Z,101441.73
2019-01-11T11:08:52.675Z,101438.14
2019-01-11T11:09:56.227Z,101433.50
2019-01-11T11:10:59.874Z,101437.06
2019-01-11T11:12:03.618Z,101436.52
2019-01-11T11:13:07.170Z,101435.19
2019-01-11T11:14:10.867Z,101432.99
2019-01-11T11:15:16.723Z,101424.23
2019-01-11T11:16:20.483Z,101418.47
2019-01-11T11:17:24.079Z,101420.71
2019-01-11T11:18:28.085Z,101423.52
2019-01-11T11:19:31.722Z,101426.82
2019-01-11T11:20:35.282Z,101427.69
2019-01-11T11:21:38.812Z,101429.06
2019-01-11T11:22:43.150Z,101436.19
2019-01-11T11:23:46.741Z,101431.45
2019-01-11T11:24:50.306Z,101427.89
2019-01-11T11:25:53.796Z,101432.22
2019-01-11T11:26:57.462Z,101430.24
2019-01-11T11:28:01.187Z,101432.99
2019-01-11T11:29:04.925Z,101428.30
2019-01-11T11:30:11.516Z,101430.24
2019-01-11T11:31:15.123Z,101433.55
2019-01-11T11:32:20.340Z,101429.98
2019-01-11T11:33:23.919Z,101432.73
2019-01-11T11:34:27.702Z,101432.99
2019-01-11T11:35:31.331Z,101426.47
2019-01-11T11:36:34.937Z,101427.03
2019-01-11T11:37:38.604Z,101424.84
2019-01-11T11:38:42.189Z,101421.83
2019-01-11T11:39:45.721Z,101425.14
2019-01-11T11:40:49.448Z,101427.94
2019-01-11T11:41:53.171Z,101426.56
2019-01-11T11:43:06.016Z,101427.94
2019-01-11T11:44:05.406Z,101424.63
2019-01-11T11:45:09.286Z,101423.20
2019-01-11T11:46:15.513Z,101424.48
2019-01-11T11:47:19.165Z,101419.49
2019-01-11T11:48:22.733Z,101420.61
2019-01-11T11:49:26.248Z,101419.80
2019-01-11T11:50:29.906Z,101419.80
2019-01-11T11:51:33.546Z,101421.48
2019-01-11T11:52:37.067Z,101421.53
2019-01-11T11:53:40.633Z,101419.34
2019-01-11T11:54:44.146Z,101426.73
2019-01-11T11:55:47.709Z,101422.91
2019-01-11T11:56:51.201Z,101424.63
2019-01-11T11:57:54.885Z,101421.32
2019-01-11T11:58:58.452Z,101418.88
2019-01-11T12:00:01.979Z,101421.06
2019-01-11T12:01:07.270Z,101416.69
2019-01-11T12:02:10.840Z,101413.65
2019-01-11T12:03:14.365Z,101413.07
2019-01-11T12:04:18.011Z,101414.95
2019-01-11T12:05:21.621Z,101412.16
2019-01-11T12:06:25.206Z,101406.09
2019-01-11T12:07:28.842Z,101403.04
2019-01-11T12:08:32.581Z,101398.61
2019-01-11T12:09:36.136Z,101401.36